Time;durP1;ratioP1;P1;durP2;ratioP2;P2;SDS_P1;SDS_P2;PMS_P1;PMS_P2;Temp;Humidity;BMP_temperature;BMP_pressure;BME280_temperature;BME280_humidity;BME280_pressure;Samples;Min_cycle;Max_cycle;Signal;HPM_P1;HPM_P2
2023/02/09 00:01:08;;;;;;;9.77;8.73;;;-2.60;1.00;;;;;;5032592;28;20191;-63
2023/02/09 00:03:35;;;;;;;8.70;8.20;;;-2.60;1.00;;;;;;5033673;28;20190;-63
2023/02/09 00:06:02;;;;;;;8.63;8.17;;;-2.60;1.00;;;;;;5033592;28;20215;-63
2023/02/09 00:08:28;;;;;;;8.90;8.20;;;-2.60;1.00;;;;;;5032958;28;20270;-63
2023/02/09 00:10:54;;;;;;;10.70;9.07;;;-2.60;1.00;;;;;;5033122;28;20234;-63
2023/02/09 00:13:23;;;;;;;8.20;7.70;;;-2.70;1.00;;;;;;5032779;28;20378;-63
2023/02/09 00:15:57;;;;;;;9.07;8.47;;;-2.70;1.00;;;;;;5033282;28;20183;-63
2023/02/09 00:18:24;;;;;;;9.20;8.57;;;-2.70;1.00;;;;;;5032936;28;20184;-63
2023/02/09 00:20:57;;;;;;;9.30;8.80;;;-2.60;1.00;;;;;;5032759;28;20269;-63
2023/02/09 00:23:23;;;;;;;10.63;9.17;;;-2.60;1.00;;;;;;5033298;28;20179;-63
2023/02/09 00:25:50;;;;;;;9.03;8.30;;;-2.60;1.00;;;;;;5033028;28;20175;-63
2023/02/09 00:28:16;;;;;;;8.30;7.90;;;-2.60;1.00;;;;;;5032665;28;20190;-63
2023/02/09 00:30:42;;;;;;;8.37;7.87;;;-2.60;1.00;;;;;;5032403;28;20621;-63
2023/02/09 00:33:08;;;;;;;8.60;7.97;;;-2.60;1.00;;;;;;5032088;28;20213;-63
2023/02/09 00:35:33;;;;;;;8.67;7.93;;;-2.50;1.00;;;;;;5032594;28;20180;-63
2023/02/09 00:37:59;;;;;;;9.93;9.13;;;-2.50;1.00;;;;;;5032260;28;20187;-63
2023/02/09 00:40:24;;;;;;;8.53;8.03;;;-2.60;1.00;;;;;;5031991;28;20179;-63
2023/02/09 00:42:50;;;;;;;10.33;9.53;;;-2.50;1.00;;;;;;5032523;28;20222;-63
2023/02/09 00:45:16;;;;;;;8.83;8.13;;;-2.60;1.00;;;;;;5031724;28;20641;-63
2023/02/09 00:47:41;;;;;;;9.30;8.53;;;-2.60;1.00;;;;;;5032424;28;20218;-63
2023/02/09 00:50:07;;;;;;;9.73;8.67;;;-2.60;1.00;;;;;;5032190;28;20696;-63
2023/02/09 00:52:34;;;;;;;9.07;8.33;;;-2.60;1.00;;;;;;5032320;28;20231;-63
2023/02/09 00:54:59;;;;;;;8.80;8.27;;;-2.60;1.00;;;;;;5032382;28;20293;-64
2023/02/09 00:57:25;;;;;;;8.73;8.17;;;-2.60;1.00;;;;;;5031779;28;20278;-63
2023/02/09 00:59:51;;;;;;;9.20;8.60;;;-2.60;1.00;;;;;;5031998;28;20664;-63
2023/02/09 01:02:17;;;;;;;9.00;8.50;;;-2.60;1.00;;;;;;5031950;28;20195;-63
2023/02/09 01:04:42;;;;;;;8.60;8.10;;;-2.60;1.00;;;;;;5032324;28;20183;-63
2023/02/09 01:07:08;;;;;;;9.07;8.47;;;-2.50;1.00;;;;;;5031757;28;20246;-63
2023/02/09 01:09:33;;;;;;;9.73;8.73;;;-2.60;1.00;;;;;;5030219;28;20221;-63
2023/02/09 01:11:59;;;;;;;8.63;8.03;;;-2.50;1.00;;;;;;5032165;28;20187;-63
2023/02/09 01:14:25;;;;;;;8.60;8.07;;;-2.50;1.00;;;;;;5030833;28;20175;-63
2023/02/09 01:16:50;;;;;;;9.20;8.50;;;-2.60;1.00;;;;;;5027288;28;20266;-64
2023/02/09 01:19:16;;;;;;;8.67;8.17;;;-2.60;1.00;;;;;;5026716;28;20554;-63
2023/02/09 01:21:41;;;;;;;7.57;7.17;;;-2.60;1.00;;;;;;5012526;28;20204;-63
2023/02/09 01:24:12;;;;;;;9.50;8.93;;;-2.60;1.00;;;;;;5028554;28;20175;-64
2023/02/09 01:26:38;;;;;;;10.27;9.47;;;-2.60;1.00;;;;;;5031345;28;20203;-63
2023/02/09 01:29:03;;;;;;;8.87;8.37;;;-2.50;1.00;;;;;;5030699;28;20175;-63
2023/02/09 01:31:31;;;;;;;8.97;8.37;;;-2.50;1.00;;;;;;5029502;28;20574;-63
2023/02/09 01:33:59;;;;;;;9.20;8.60;;;-2.60;1.00;;;;;;5030696;28;20199;-63
2023/02/09 01:36:25;;;;;;;8.23;7.53;;;-2.50;1.00;;;;;;5013920;28;20186;-63
2023/02/09 01:38:54;;;;;;;9.47;8.83;;;-2.50;1.00;;;;;;5012041;28;20264;-63
2023/02/09 01:41:20;;;;;;;8.43;7.97;;;-2.50;1.00;;;;;;5011739;28;20211;-64
2023/02/09 01:43:58;;;;;;;9.23;8.27;;;-2.50;1.00;;;;;;5012020;28;20180;-64
2023/02/09 01:46:29;;;;;;;9.00;8.37;;;-2.40;1.00;;;;;;5011658;28;20204;-64
2023/02/09 01:49:18;;;;;;;9.43;8.60;;;-2.40;1.00;;;;;;5011904;28;20194;-64
2023/02/09 01:52:09;;;;;;;8.70;8.20;;;-2.40;1.00;;;;;;5008710;28;20299;-64
2023/02/09 01:54:36;;;;;;;7.50;7.20;;;-2.40;1.00;;;;;;5011804;28;20164;-64
2023/02/09 01:57:09;;;;;;;9.47;8.73;;;-2.40;1.00;;;;;;5010768;28;20180;-64
2023/02/09 01:59:38;;;;;;;7.30;7.00;;;-2.40;1.00;;;;;;5011313;28;20233;-64
2023/02/09 02:02:06;;;;;;;9.57;8.70;;;-2.50;1.00;;;;;;5011565;28;20560;-64
2023/02/09 02:04:33;;;;;;;8.67;7.97;;;-2.50;1.00;;;;;;5011499;28;20659;-64
2023/02/09 02:07:11;;;;;;;8.60;7.90;;;-2.50;1.00;;;;;;5010194;28;20219;-64
2023/02/09 02:09:36;;;;;;;8.70;8.10;;;-2.50;1.00;;;;;;5011321;28;20168;-64
2023/02/09 02:12:04;;;;;;;8.83;8.27;;;-2.50;1.00;;;;;;5021442;28;20196;-64
2023/02/09 02:14:35;;;;;;;8.83;8.10;;;-2.50;1.00;;;;;;5031177;28;20220;-64
2023/02/09 02:17:06;;;;;;;9.53;8.77;;;-2.50;1.00;;;;;;5031205;28;20183;-64
2023/02/09 02:20:09;;;;;;;8.53;8.03;;;-2.50;1.00;;;;;;5030776;28;20211;-64
2023/02/09 02:23:15;;;;;;;8.97;8.47;;;-2.50;1.00;;;;;;5031004;28;20252;-64
2023/02/09 02:26:18;;;;;;;8.10;7.50;;;-2.60;1.00;;;;;;5031529;28;20178;-63
2023/02/09 02:28:55;;;;;;;8.27;7.53;;;-2.60;1.00;;;;;;5031177;28;20660;-63
2023/02/09 02:31:48;;;;;;;8.73;8.03;;;-2.60;1.00;;;;;;5030452;28;20187;-63
2023/02/09 02:34:23;;;;;;;8.10;7.67;;;-2.60;1.00;;;;;;5031315;28;20202;-63
2023/02/09 02:37:16;;;;;;;9.47;8.67;;;-2.60;1.00;;;;;;5031360;28;20208;-63
2023/02/09 02:39:51;;;;;;;9.93;8.97;;;-2.70;1.00;;;;;;5030827;28;20230;-64
2023/02/09 02:42:49;;;;;;;12.43;9.33;;;-2.70;1.00;;;;;;5030838;28;20215;-63
2023/02/09 02:45:47;;;;;;;9.17;8.63;;;-2.70;1.00;;;;;;5030896;28;20233;-63
2023/02/09 02:48:26;;;;;;;9.23;8.43;;;-2.60;1.00;;;;;;5031040;28;20574;-64
2023/02/09 02:51:17;;;;;;;8.90;8.30;;;-2.60;1.00;;;;;;5030626;28;20189;-64
2023/02/09 02:53:49;;;;;;;9.83;9.23;;;-2.60;1.00;;;;;;5030999;28;20174;-64
2023/02/09 02:56:19;;;;;;;8.80;8.20;;;-2.50;1.00;;;;;;5030766;28;20163;-64
2023/02/09 02:58:49;;;;;;;8.73;8.23;;;-2.50;1.00;;;;;;5030863;28;20179;-64
2023/02/09 03:01:20;;;;;;;8.23;7.73;;;-2.60;1.00;;;;;;5030511;28;20665;-64
2023/02/09 03:03:47;;;;;;;10.17;9.57;;;-2.60;1.00;;;;;;5030907;28;20175;-64
2023/02/09 03:06:13;;;;;;;9.30;8.70;;;-2.60;1.00;;;;;;5030647;28;20195;-64
2023/02/09 03:08:55;;;;;;;9.00;8.20;;;-2.60;1.00;;;;;;5032635;28;20657;-64
2023/02/09 03:11:24;;;;;;;10.43;8.60;;;-2.70;1.00;;;;;;5029176;28;20562;-64
2023/02/09 03:14:09;;;;;;;8.63;8.13;;;-2.60;1.00;;;;;;5014378;28;20179;-64
2023/02/09 03:16:43;;;;;;;8.43;7.93;;;-2.70;1.00;;;;;;5010488;28;20215;-64
2023/02/09 03:19:30;;;;;;;8.80;8.37;;;-2.80;1.00;;;;;;5014208;28;20168;-63
2023/02/09 03:22:10;;;;;;;10.63;9.10;;;-2.80;1.00;;;;;;5014497;28;20565;-64
2023/02/09 03:24:49;;;;;;;9.53;8.63;;;-2.80;1.00;;;;;;5014459;28;20377;-64
2023/02/09 03:27:26;;;;;;;8.37;7.67;;;-2.90;1.00;;;;;;5013991;28;20195;-64
2023/02/09 03:29:57;;;;;;;8.63;8.07;;;-2.90;1.00;;;;;;5014001;28;20183;-64
2023/02/09 03:32:24;;;;;;;8.53;8.13;;;-2.90;1.00;;;;;;5013976;28;20180;-64
2023/02/09 03:34:51;;;;;;;8.83;8.17;;;-2.90;1.00;;;;;;5014222;28;20606;-64
2023/02/09 03:37:17;;;;;;;8.97;8.30;;;-2.90;1.00;;;;;;5013837;28;20443;-64
2023/02/09 03:39:43;;;;;;;9.00;8.50;;;-2.90;1.00;;;;;;5013810;28;20318;-64
2023/02/09 03:42:09;;;;;;;9.20;8.47;;;-2.90;1.00;;;;;;5013885;28;20208;-64
2023/02/09 03:44:34;;;;;;;8.97;8.20;;;-2.90;1.00;;;;;;5013728;28;20182;-64
2023/02/09 03:47:03;;;;;;;8.90;8.40;;;-2.90;1.00;;;;;;5013893;28;20283;-64
2023/02/09 03:49:32;;;;;;;8.90;8.27;;;-2.90;1.00;;;;;;5013334;28;20176;-64
2023/02/09 03:52:01;;;;;;;14.50;9.60;;;-2.90;1.00;;;;;;5013765;28;20196;-64
2023/02/09 03:54:28;;;;;;;9.40;8.83;;;-2.90;1.00;;;;;;5013596;28;20195;-64
2023/02/09 03:56:54;;;;;;;9.53;8.93;;;-2.90;1.00;;;;;;5013979;28;20168;-64
2023/02/09 03:59:20;;;;;;;9.17;8.57;;;-3.00;1.00;;;;;;5013083;28;20206;-64
2023/02/09 04:01:46;;;;;;;8.97;8.43;;;-3.00;1.00;;;;;;5013550;28;20184;-64
2023/02/09 04:04:12;;;;;;;11.70;8.10;;;-3.00;32.60;;;;;;5013440;28;20180;-64
2023/02/09 04:06:39;;;;;;;10.50;9.77;;;-3.10;89.50;;;;;;5012530;28;20210;-64
2023/02/09 04:09:05;;;;;;;9.23;8.73;;;-3.10;99.90;;;;;;5013346;28;20729;-64
2023/02/09 04:11:30;;;;;;;8.40;7.97;;;-3.10;99.90;;;;;;5018240;28;20676;-64
2023/02/09 04:13:56;;;;;;;9.20;8.67;;;-3.10;99.90;;;;;;5033090;28;20174;-64
2023/02/09 04:16:22;;;;;;;9.00;8.40;;;-3.10;99.90;;;;;;5033082;28;20205;-64
2023/02/09 04:18:48;;;;;;;10.03;9.07;;;-3.10;99.90;;;;;;5032924;28;20176;-64
2023/02/09 04:21:13;;;;;;;8.43;7.93;;;-3.10;99.90;;;;;;5031778;28;20536;-64
2023/02/09 04:23:39;;;;;;;9.37;8.60;;;-3.10;99.90;;;;;;5032775;28;20179;-64
2023/02/09 04:26:05;;;;;;;8.80;8.20;;;-3.10;99.90;;;;;;5033082;28;20172;-64
2023/02/09 04:28:31;;;;;;;10.00;9.30;;;-3.20;99.90;;;;;;5032502;28;20188;-64
2023/02/09 04:30:56;;;;;;;9.63;9.13;;;-3.20;99.90;;;;;;5032241;28;20545;-65
2023/02/09 04:33:23;;;;;;;7.73;7.43;;;-3.20;99.90;;;;;;5032433;28;20480;-64
2023/02/09 04:35:50;;;;;;;8.90;8.40;;;-3.30;1.00;;;;;;5032654;28;20209;-64
2023/02/09 04:38:19;;;;;;;9.10;8.40;;;-3.30;1.00;;;;;;5032662;28;20555;-64
2023/02/09 04:40:46;;;;;;;11.00;10.17;;;-3.30;99.90;;;;;;5032106;28;20179;-64
2023/02/09 04:43:11;;;;;;;9.97;9.03;;;-3.20;99.90;;;;;;5032532;28;20183;-65
2023/02/09 04:45:38;;;;;;;13.67;8.77;;;-3.20;99.90;;;;;;5032386;28;20271;-64
2023/02/09 04:48:05;;;;;;;8.47;8.07;;;-3.30;99.90;;;;;;5032788;28;20199;-64
2023/02/09 04:50:31;;;;;;;10.23;9.40;;;-3.20;99.90;;;;;;5032143;28;20176;-64
2023/02/09 04:52:56;;;;;;;11.37;10.40;;;-3.20;99.90;;;;;;5032635;28;20619;-63
2023/02/09 04:55:22;;;;;;;8.93;8.33;;;-3.20;99.90;;;;;;5032201;28;20258;-64
2023/02/09 05:00:32;;;;;;;9.20;8.60;;;-3.20;78.40;;;;;;5031676;28;20245;-64
2023/02/09 05:02:58;;;;;;;9.33;8.73;;;-3.20;1.00;;;;;;5032287;28;20184;-64
2023/02/09 05:05:23;;;;;;;9.23;8.67;;;-3.20;99.90;;;;;;5032100;28;20199;-64
2023/02/09 05:07:49;;;;;;;13.37;9.23;;;-3.20;99.90;;;;;;5032104;28;20589;-65
2023/02/09 05:10:15;;;;;;;9.87;9.17;;;-3.20;12.60;;;;;;5031896;28;20210;-64
2023/02/09 05:12:41;;;;;;;9.80;9.03;;;-3.20;57.40;;;;;;5016828;28;20570;-64
2023/02/09 05:15:07;;;;;;;9.47;8.87;;;-3.20;99.90;;;;;;5012545;28;20172;-64
2023/02/09 05:17:32;;;;;;;9.40;8.70;;;-3.20;1.00;;;;;;5012060;28;20215;-64
2023/02/09 05:19:58;;;;;;;11.47;9.20;;;-3.20;1.00;;;;;;5011835;28;20227;-63
2023/02/09 05:22:25;;;;;;;8.73;8.33;;;-3.20;1.00;;;;;;5012420;28;20196;-64
2023/02/09 05:24:50;;;;;;;10.70;9.93;;;-3.20;99.90;;;;;;5012364;28;20308;-64
2023/02/09 05:27:16;;;;;;;8.50;8.10;;;-3.20;99.90;;;;;;5011958;28;20235;-64
2023/02/09 05:29:41;;;;;;;10.33;9.60;;;-3.10;99.90;;;;;;5011699;28;20172;-64
2023/02/09 05:32:07;;;;;;;8.93;8.33;;;-3.10;99.90;;;;;;5011860;28;20264;-64
2023/02/09 05:34:32;;;;;;;9.33;8.73;;;-3.00;99.90;;;;;;5012193;28;20223;-64
2023/02/09 05:36:58;;;;;;;10.57;9.43;;;-3.00;99.90;;;;;;5011920;28;20204;-64
2023/02/09 05:39:24;;;;;;;8.27;7.87;;;-3.00;1.00;;;;;;5011593;28;20657;-64
2023/02/09 05:44:34;;;;;;;11.43;9.60;;;-3.00;1.00;;;;;;5011773;28;20194;-64
2023/02/09 05:46:59;;;;;;;9.90;9.00;;;-3.00;1.00;;;;;;5011704;28;20294;-64
2023/02/09 05:49:25;;;;;;;9.83;8.83;;;-3.00;1.00;;;;;;5011238;28;20179;-64
2023/02/09 05:51:50;;;;;;;10.43;9.83;;;-3.10;1.00;;;;;;5021561;28;20627;-64
2023/02/09 05:54:16;;;;;;;10.10;9.33;;;-3.10;99.90;;;;;;5030479;28;20171;-64
2023/02/09 05:56:42;;;;;;;9.60;9.10;;;-3.10;1.00;;;;;;5030422;28;20180;-64
2023/02/09 05:59:07;;;;;;;9.97;8.90;;;-3.20;1.00;;;;;;5030288;28;20179;-64
2023/02/09 06:01:33;;;;;;;9.03;8.33;;;-3.20;1.00;;;;;;5030012;28;20197;-63
2023/02/09 06:03:59;;;;;;;9.73;9.03;;;-3.20;10.00;;;;;;5030554;28;20629;-64
2023/02/09 06:06:24;;;;;;;9.13;8.67;;;-3.20;1.00;;;;;;5030175;28;20723;-64
2023/02/09 06:08:50;;;;;;;9.10;8.50;;;-3.20;1.00;;;;;;5031234;28;20175;-64
2023/02/09 06:11:16;;;;;;;8.57;8.07;;;-3.20;65.60;;;;;;5026845;28;20200;-64
2023/02/09 06:13:41;;;;;;;9.90;9.20;;;-3.20;1.00;;;;;;5011428;28;20164;-64
2023/02/09 06:16:07;;;;;;;8.90;8.40;;;-3.30;1.00;;;;;;5011531;28;20187;-64
2023/02/09 06:18:33;;;;;;;10.07;8.83;;;-3.30;1.00;;;;;;5011313;28;20180;-64
2023/02/09 06:20:58;;;;;;;8.97;8.47;;;-3.30;9.60;;;;;;5011134;28;20184;-64
2023/02/09 06:23:24;;;;;;;12.20;10.80;;;-3.30;99.90;;;;;;5011522;28;20173;-64
2023/02/09 06:25:52;;;;;;;8.73;8.33;;;-3.30;99.90;;;;;;5011380;28;20236;-64
2023/02/09 06:28:19;;;;;;;8.90;8.47;;;-3.40;1.00;;;;;;5009892;28;20216;-64
2023/02/09 06:30:52;;;;;;;10.10;9.37;;;-3.30;99.90;;;;;;5011117;28;20693;-64
2023/02/09 06:33:18;;;;;;;11.60;10.50;;;-3.30;99.90;;;;;;5011311;28;20172;-64
2023/02/09 06:35:45;;;;;;;9.60;9.03;;;-3.30;99.90;;;;;;5011291;28;20182;-64
2023/02/09 06:38:11;;;;;;;9.47;8.90;;;-3.30;93.70;;;;;;5011714;28;20204;-64
2023/02/09 06:40:37;;;;;;;8.87;8.47;;;-3.30;99.90;;;;;;5010562;28;20181;-64
2023/02/09 06:43:03;;;;;;;9.97;9.27;;;-3.20;99.90;;;;;;5012256;28;20559;-64
2023/02/09 06:45:29;;;;;;;10.27;9.67;;;-3.20;31.50;;;;;;5014932;28;20191;-65
2023/02/09 06:47:54;;;;;;;10.33;9.53;;;-3.20;1.00;;;;;;5015116;28;20291;-64
2023/02/09 06:50:20;;;;;;;9.13;8.73;;;-3.20;1.00;;;;;;5014616;28;20259;-64
2023/02/09 06:52:45;;;;;;;9.50;9.00;;;-3.20;1.00;;;;;;5014764;28;20200;-65
2023/02/09 06:55:12;;;;;;;11.60;10.43;;;-3.20;1.00;;;;;;5014876;28;20684;-64
2023/02/09 06:57:38;;;;;;;10.23;9.47;;;-3.20;1.00;;;;;;5014676;28;20552;-64
2023/02/09 07:00:06;;;;;;;14.03;10.40;;;-3.20;1.00;;;;;;5014599;28;20211;-65
2023/02/09 07:02:32;;;;;;;12.37;10.83;;;-3.10;1.00;;;;;;5014569;28;20283;-64
2023/02/09 07:04:57;;;;;;;24.03;11.40;;;-3.10;1.00;;;;;;5014903;28;20621;-64
2023/02/09 07:07:24;;;;;;;10.53;9.67;;;-3.10;1.00;;;;;;5014456;28;20204;-64
2023/02/09 07:09:49;;;;;;;10.27;9.73;;;-3.10;1.00;;;;;;5014253;28;20218;-64
2023/02/09 07:12:15;;;;;;;11.70;10.30;;;-3.10;1.00;;;;;;5026201;28;20199;-64
2023/02/09 07:14:40;;;;;;;10.37;9.80;;;-3.00;1.00;;;;;;5034338;28;20180;-65
2023/02/09 07:17:06;;;;;;;10.20;9.50;;;-3.00;1.00;;;;;;5034125;28;20179;-64
2023/02/09 07:19:32;;;;;;;12.17;10.07;;;-3.00;63.70;;;;;;5033606;28;20177;-64
2023/02/09 07:21:57;;;;;;;13.07;10.17;;;-2.90;1.00;;;;;;5034252;28;20226;-65
2023/02/09 07:24:24;;;;;;;15.17;10.07;;;-2.90;99.90;;;;;;5033985;28;20175;-65
2023/02/09 07:26:49;;;;;;;10.53;9.80;;;-2.80;1.00;;;;;;5034105;28;20211;-64
2023/02/09 07:29:16;;;;;;;11.30;10.30;;;-2.70;1.00;;;;;;5033501;28;20180;-64
2023/02/09 07:31:41;;;;;;;11.27;9.40;;;-2.60;1.00;;;;;;5032253;28;20304;-64
2023/02/09 07:34:07;;;;;;;11.60;10.53;;;-2.60;99.90;;;;;;5033069;28;20266;-64
2023/02/09 07:36:33;;;;;;;10.13;9.30;;;-2.50;1.00;;;;;;5033072;28;20279;-64
2023/02/09 07:38:58;;;;;;;10.27;8.00;;;-2.40;99.90;;;;;;5033990;28;20186;-64
2023/02/09 07:41:25;;;;;;;19.90;9.80;;;-2.30;1.00;;;;;;5034089;28;20214;-64
2023/02/09 07:43:51;;;;;;;10.33;9.57;;;-2.20;1.00;;;;;;5033765;28;20312;-64
2023/02/09 07:46:20;;;;;;;10.60;9.40;;;-2.00;99.90;;;;;;5033694;28;20183;-64
2023/02/09 07:48:46;;;;;;;9.63;8.87;;;-1.90;99.90;;;;;;5033786;28;20221;-64
2023/02/09 07:51:14;;;;;;;10.33;9.60;;;-1.80;1.00;;;;;;5032821;28;20310;-64
2023/02/09 07:53:39;;;;;;;11.17;10.17;;;-1.70;99.90;;;;;;5033226;28;20187;-64
2023/02/09 07:56:05;;;;;;;12.67;10.17;;;-1.60;99.90;;;;;;5033590;28;20630;-64
2023/02/09 07:58:30;;;;;;;11.20;10.30;;;-1.50;97.70;;;;;;5033383;28;20175;-64
2023/02/09 08:01:06;;;;;;;9.80;9.13;;;-1.40;1.00;;;;;;5033312;28;20299;-64
2023/02/09 08:03:34;;;;;;;14.23;10.00;;;-1.30;1.00;;;;;;5033242;28;20179;-64
2023/02/09 08:06:21;;;;;;;11.20;9.57;;;-1.10;1.00;;;;;;5033433;28;20217;-64
2023/02/09 08:08:51;;;;;;;10.97;10.07;;;-0.70;1.00;;;;;;5031607;28;20176;-65
2023/02/09 08:11:28;;;;;;;14.57;9.70;;;-0.30;1.00;;;;;;5024230;28;20287;-64
2023/02/09 08:13:55;;;;;;;12.40;9.03;;;0.20;1.00;;;;;;5034588;28;20168;-64
2023/02/09 08:16:26;;;;;;;11.23;10.50;;;0.70;1.00;;;;;;5032611;28;20236;-64
2023/02/09 08:19:00;;;;;;;10.40;9.60;;;1.10;1.00;;;;;;5033323;28;20187;-65
2023/02/09 08:21:30;;;;;;;10.27;9.27;;;1.50;1.00;;;;;;5032603;28;20222;-64
2023/02/09 08:23:58;;;;;;;9.17;8.53;;;1.90;99.90;;;;;;5033149;28;20179;-64
2023/02/09 08:26:24;;;;;;;10.43;9.37;;;2.10;99.90;;;;;;5032434;28;20191;-64
2023/02/09 08:28:51;;;;;;;11.30;9.23;;;2.20;99.90;;;;;;5024831;28;20188;-64
2023/02/09 08:31:19;;;;;;;12.17;9.50;;;2.40;99.90;;;;;;5012721;28;20366;-65
2023/02/09 08:33:46;;;;;;;12.10;10.67;;;2.70;99.90;;;;;;5019340;28;20203;-64
2023/02/09 08:36:13;;;;;;;11.40;9.93;;;2.80;99.90;;;;;;5032035;28;20182;-65
2023/02/09 08:38:39;;;;;;;12.43;9.57;;;3.00;99.90;;;;;;5032587;28;20258;-64
2023/02/09 08:41:06;;;;;;;12.07;11.00;;;3.00;99.90;;;;;;5032397;28;20361;-64
2023/02/09 08:43:32;;;;;;;11.50;10.57;;;3.20;99.90;;;;;;5031716;28;20637;-64
2023/02/09 08:46:09;;;;;;;10.87;9.87;;;3.30;99.90;;;;;;5032820;28;20583;-64
2023/02/09 08:48:38;;;;;;;11.33;10.40;;;3.40;99.90;;;;;;5032590;28;20232;-65
2023/02/09 08:51:05;;;;;;;11.07;9.23;;;3.60;99.90;;;;;;5032257;28;20207;-64
2023/02/09 08:53:30;;;;;;;10.43;9.13;;;3.70;99.90;;;;;;5032639;28;20546;-65
2023/02/09 08:55:56;;;;;;;12.57;9.03;;;3.90;99.90;;;;;;5032209;28;20234;-64
2023/02/09 08:58:23;;;;;;;10.23;9.23;;;4.10;99.90;;;;;;5031962;28;20179;-65
2023/02/09 09:00:48;;;;;;;10.03;8.60;;;4.30;99.90;;;;;;5032133;28;20171;-64
2023/02/09 09:03:14;;;;;;;11.70;8.63;;;4.60;99.90;;;;;;5032374;28;20201;-64
2023/02/09 09:05:39;;;;;;;11.33;9.03;;;4.80;99.90;;;;;;5031502;28;20176;-64
2023/02/09 09:08:05;;;;;;;11.03;9.43;;;4.90;99.90;;;;;;5031804;28;20203;-64
2023/02/09 09:10:31;;;;;;;10.83;9.13;;;4.80;99.90;;;;;;5031516;28;20207;-64
2023/02/09 09:12:57;;;;;;;9.07;8.43;;;4.70;99.90;;;;;;5024609;28;20233;-64
2023/02/09 09:15:23;;;;;;;10.23;9.03;;;4.70;99.90;;;;;;5012230;28;20180;-64
2023/02/09 09:17:48;;;;;;;8.37;7.63;;;4.60;99.90;;;;;;5019196;28;20183;-65
2023/02/09 09:20:14;;;;;;;8.90;8.13;;;4.60;99.90;;;;;;5025694;28;20669;-65
2023/02/09 09:22:40;;;;;;;11.00;8.73;;;4.70;99.90;;;;;;5017330;28;20195;-64
2023/02/09 09:25:06;;;;;;;10.47;8.80;;;4.90;99.90;;;;;;5031945;28;20172;-64
2023/02/09 09:27:33;;;;;;;12.43;9.50;;;5.00;99.90;;;;;;5031516;28;20207;-64
2023/02/09 09:29:59;;;;;;;11.40;9.20;;;5.30;99.90;;;;;;5031398;28;20176;-64
2023/02/09 09:32:26;;;;;;;15.97;9.40;;;5.50;99.90;;;;;;5031056;28;20195;-64
2023/02/09 09:34:53;;;;;;;14.00;9.60;;;5.50;99.90;;;;;;5028858;28;20542;-64
2023/02/09 09:37:19;;;;;;;12.70;9.07;;;5.60;99.90;;;;;;5030286;28;20182;-65
2023/02/09 09:39:44;;;;;;;8.90;8.10;;;5.60;99.90;;;;;;5030142;28;20237;-65
2023/02/09 09:42:24;;;;;;;8.90;8.00;;;5.60;99.90;;;;;;5031217;28;20223;-65
2023/02/09 09:44:50;;;;;;;8.90;8.10;;;5.60;99.90;;;;;;5031836;28;20172;-64
2023/02/09 09:47:27;;;;;;;10.03;9.00;;;5.60;99.90;;;;;;5031198;28;20229;-65
2023/02/09 09:49:53;;;;;;;12.13;8.50;;;5.70;99.90;;;;;;5031278;28;20263;-65
2023/02/09 09:52:25;;;;;;;12.97;8.70;;;5.90;99.90;;;;;;5031503;28;20619;-65
2023/02/09 09:54:51;;;;;;;11.57;9.47;;;6.10;99.90;;;;;;5011676;28;20176;-64
2023/02/09 09:57:24;;;;;;;9.77;8.77;;;6.50;99.90;;;;;;5028662;28;20205;-65
2023/02/09 09:59:51;;;;;;;9.97;8.97;;;6.60;99.90;;;;;;5031591;28;20217;-65
2023/02/09 10:02:32;;;;;;;12.20;9.33;;;6.80;99.90;;;;;;5031192;28;20202;-65
2023/02/09 10:05:21;;;;;;;10.13;9.10;;;6.80;99.90;;;;;;5031790;28;20189;-65
2023/02/09 10:08:13;;;;;;;13.63;9.27;;;7.00;99.90;;;;;;5030757;28;20203;-65
2023/02/09 10:10:39;;;;;;;10.80;8.83;;;7.30;99.90;;;;;;5030834;28;20254;-65
2023/02/09 10:13:35;;;;;;;12.53;9.10;;;7.50;99.90;;;;;;5031808;28;20251;-65
2023/02/09 10:16:01;;;;;;;11.27;8.77;;;7.60;99.90;;;;;;5030943;28;20538;-65
2023/02/09 10:18:29;;;;;;;13.03;9.10;;;7.60;99.90;;;;;;5032896;28;20183;-64
2023/02/09 10:21:06;;;;;;;12.30;8.50;;;7.70;99.90;;;;;;5034965;28;20203;-65
2023/02/09 10:23:43;;;;;;;8.57;7.77;;;7.70;99.90;;;;;;5035207;28;20175;-65
2023/02/09 10:26:09;;;;;;;9.53;8.43;;;7.50;99.90;;;;;;5035301;28;20179;-65
2023/02/09 10:28:41;;;;;;;11.03;9.10;;;7.40;99.90;;;;;;5034101;28;20180;-65
2023/02/09 10:31:36;;;;;;;10.63;9.43;;;7.50;99.90;;;;;;5034621;28;20683;-64
2023/02/09 10:34:06;;;;;;;9.73;8.70;;;7.60;99.90;;;;;;5035463;28;20644;-65
2023/02/09 10:36:36;;;;;;;8.90;8.10;;;7.70;99.90;;;;;;5034809;28;20258;-65
2023/02/09 10:39:09;;;;;;;14.57;9.07;;;7.70;99.90;;;;;;5035374;28;20625;-65
2023/02/09 10:41:35;;;;;;;9.67;8.67;;;7.70;99.90;;;;;;5034754;28;20199;-65
2023/02/09 10:44:06;;;;;;;8.40;7.77;;;7.60;99.90;;;;;;5035041;28;20699;-64
2023/02/09 10:46:32;;;;;;;10.20;9.27;;;7.40;99.90;;;;;;5034644;28;20655;-64
2023/02/09 10:48:58;;;;;;;9.73;8.87;;;7.20;99.90;;;;;;5034822;28;20250;-64
2023/02/09 10:51:28;;;;;;;10.30;9.43;;;7.10;99.90;;;;;;5034231;28;20250;-65
2023/02/09 10:54:02;;;;;;;10.57;9.60;;;7.10;99.90;;;;;;5034878;28;20250;-64
2023/02/09 10:56:43;;;;;;;15.07;9.30;;;7.10;99.90;;;;;;5034620;28;20545;-64
2023/02/09 10:59:20;;;;;;;10.00;8.90;;;7.00;99.90;;;;;;5034339;28;20175;-64
2023/02/09 11:01:57;;;;;;;9.93;8.87;;;6.80;99.90;;;;;;5034342;28;20191;-64
2023/02/09 11:04:28;;;;;;;14.40;10.40;;;6.80;99.90;;;;;;5034518;28;20206;-64
2023/02/09 11:07:00;;;;;;;12.23;10.27;;;6.90;99.90;;;;;;5034494;28;20202;-64
2023/02/09 11:09:31;;;;;;;10.57;9.40;;;6.90;99.90;;;;;;5034260;28;20195;-64
2023/02/09 11:11:57;;;;;;;11.73;9.77;;;7.00;99.90;;;;;;5034248;28;20569;-64
2023/02/09 11:14:23;;;;;;;11.60;10.37;;;6.90;99.90;;;;;;5034320;28;20174;-64
2023/02/09 11:17:10;;;;;;;9.60;8.60;;;6.90;99.90;;;;;;5034238;28;20184;-64
2023/02/09 11:19:48;;;;;;;11.20;9.87;;;6.80;99.90;;;;;;5033978;28;20649;-64
2023/02/09 11:22:33;;;;;;;9.37;8.40;;;6.90;99.90;;;;;;5033914;28;20588;-64
2023/02/09 11:25:05;;;;;;;10.47;9.47;;;6.90;99.90;;;;;;5034582;28;20633;-64
2023/02/09 11:27:53;;;;;;;13.10;9.17;;;7.10;99.90;;;;;;5033880;28;20210;-64
2023/02/09 11:30:36;;;;;;;13.07;9.53;;;7.20;99.90;;;;;;5033464;28;20168;-64
2023/02/09 11:33:16;;;;;;;10.60;8.17;;;7.50;99.90;;;;;;5033996;28;20179;-64
2023/02/09 11:36:21;;;;;;;11.37;8.87;;;7.80;99.90;;;;;;5034034;28;20179;-64
2023/02/09 11:38:56;;;;;;;9.30;8.23;;;8.10;99.90;;;;;;5023100;28;20199;-64
2023/02/09 11:44:28;;;;;;;9.50;8.60;;;8.30;99.90;;;;;;5014551;28;20219;-64
2023/02/09 11:47:05;;;;;;;9.53;8.00;;;8.30;99.90;;;;;;5017661;28;20201;-64
2023/02/09 11:49:41;;;;;;;10.17;9.03;;;8.30;99.90;;;;;;5033557;28;20250;-64
2023/02/09 11:52:11;;;;;;;8.53;7.83;;;8.40;99.90;;;;;;5033795;28;20285;-64
2023/02/09 11:54:37;;;;;;;9.47;8.40;;;8.50;99.90;;;;;;5023293;28;20171;-64
2023/02/09 11:57:15;;;;;;;9.00;8.10;;;8.50;99.90;;;;;;5034069;28;20186;-64
2023/02/09 11:59:48;;;;;;;13.20;10.10;;;8.50;99.90;;;;;;5033185;28;20171;-64
2023/02/09 12:02:44;;;;;;;11.80;10.10;;;8.60;99.90;;;;;;5033192;28;20199;-64
2023/02/09 12:05:16;;;;;;;9.47;8.50;;;8.70;99.90;;;;;;5033571;28;20182;-64
2023/02/09 12:08:00;;;;;;;10.00;8.50;;;8.80;99.90;;;;;;5033319;28;20199;-64
2023/02/09 12:10:43;;;;;;;10.90;8.50;;;8.70;99.90;;;;;;5031821;28;20648;-64
2023/02/09 12:13:18;;;;;;;13.17;9.07;;;8.90;99.90;;;;;;5033312;28;20633;-64
2023/02/09 12:16:06;;;;;;;8.20;7.50;;;9.10;99.90;;;;;;5033310;28;20659;-64
2023/02/09 12:18:34;;;;;;;34.23;16.33;;;9.20;99.90;;;;;;5032722;28;20230;-64
2023/02/09 12:21:05;;;;;;;8.77;7.87;;;9.40;99.90;;;;;;5032925;28;20193;-64
2023/02/09 12:23:44;;;;;;;9.97;7.43;;;9.40;99.90;;;;;;5032694;28;20574;-64
2023/02/09 12:26:15;;;;;;;7.37;6.67;;;9.50;99.90;;;;;;5030471;28;20671;-64
2023/02/09 12:28:46;;;;;;;8.07;7.37;;;9.70;99.90;;;;;;5032990;28;20187;-64
2023/02/09 12:31:17;;;;;;;7.40;6.70;;;10.10;99.90;;;;;;5032884;28;20199;-64
2023/02/09 12:33:46;;;;;;;10.00;7.70;;;10.50;99.90;;;;;;5032745;28;20186;-64
2023/02/09 12:36:11;;;;;;;8.53;7.07;;;10.80;99.90;;;;;;5032940;28;20193;-64
2023/02/09 12:38:39;;;;;;;11.10;7.87;;;10.90;99.90;;;;;;5032940;28;20183;-64
2023/02/09 12:41:06;;;;;;;9.50;7.97;;;10.80;99.90;;;;;;5031430;28;20672;-64
2023/02/09 12:43:34;;;;;;;11.07;7.97;;;10.60;99.90;;;;;;5032601;28;20188;-64
2023/02/09 12:46:12;;;;;;;9.83;8.33;;;10.30;99.90;;;;;;5032705;28;20234;-64
2023/02/09 12:49:05;;;;;;;10.50;8.37;;;9.90;99.90;;;;;;5032274;28;20218;-64
2023/02/09 12:51:54;;;;;;;8.53;7.83;;;9.80;99.90;;;;;;5032276;28;20206;-64
2023/02/09 12:54:40;;;;;;;9.63;8.07;;;9.80;99.90;;;;;;5032478;28;20305;-64
2023/02/09 12:57:15;;;;;;;9.57;8.50;;;10.00;99.90;;;;;;5032434;28;20187;-64
2023/02/09 12:59:52;;;;;;;12.97;8.20;;;10.10;99.90;;;;;;5032062;28;20179;-64
2023/02/09 13:02:48;;;;;;;8.20;7.50;;;10.30;99.90;;;;;;5012624;28;20282;-65
2023/02/09 13:05:16;;;;;;;11.53;9.83;;;10.20;99.90;;;;;;5014683;28;20199;-64
2023/02/09 13:08:17;;;;;;;24.57;13.20;;;10.30;99.90;;;;;;5032267;28;20546;-64
2023/02/09 13:10:45;;;;;;;9.27;8.23;;;10.10;99.90;;;;;;5030681;28;20219;-64
2023/02/09 13:13:10;;;;;;;7.90;7.13;;;10.20;99.90;;;;;;5032554;28;20633;-64
2023/02/09 13:16:10;;;;;;;9.17;8.00;;;10.20;99.90;;;;;;5031767;28;20193;-64